createdAt,value
2022-08-16T00:00:22.147Z,4.10
2022-08-16T00:03:13.379Z,4.22
2022-08-16T00:06:01.421Z,3.80
2022-08-16T00:08:52.454Z,4.45
2022-08-16T00:11:42.215Z,3.80
2022-08-16T00:14:34.829Z,4.15
2022-08-16T00:17:26.809Z,4.07
2022-08-16T00:20:17.730Z,4.15
2022-08-16T00:23:08.310Z,4.13
2022-08-16T00:26:34.858Z,4.13
2022-08-16T00:29:10.155Z,4.43
2022-08-16T00:32:05.756Z,4.45
2022-08-16T00:34:54.392Z,4.63
2022-08-16T00:37:57.351Z,4.60
2022-08-16T00:40:56.818Z,4.53
2022-08-16T00:43:47.079Z,4.18
2022-08-16T00:46:54.045Z,5.07
2022-08-16T00:49:56.655Z,4.20
2022-08-16T00:52:50.610Z,4.60
2022-08-16T00:55:44.220Z,4.90
2022-08-16T00:58:35.017Z,5.03
2022-08-16T01:01:24.955Z,4.75
2022-08-16T01:04:29.149Z,4.93
2022-08-16T01:07:19.965Z,5.03
2022-08-16T01:10:16.646Z,4.63
2022-08-16T01:13:12.476Z,5.10
2022-08-16T01:16:19.868Z,5.22
2022-08-16T01:19:19.830Z,5.30
2022-08-16T01:22:49.943Z,5.15
2022-08-16T01:25:34.436Z,5.50
2022-08-16T01:28:23.358Z,5.25
2022-08-16T01:31:20.144Z,5.47
2022-08-16T01:34:24.982Z,4.88
2022-08-16T01:37:14.070Z,5.78
2022-08-16T01:40:07.063Z,5.22
2022-08-16T01:42:55.482Z,4.88
2022-08-16T01:45:43.926Z,6.15
2022-08-16T01:48:34.038Z,5.68
2022-08-16T01:51:24.063Z,5.30
2022-08-16T01:54:13.471Z,5.28
2022-08-16T01:57:07.144Z,5.37
2022-08-16T01:59:59.528Z,5.10
2022-08-16T02:02:52.138Z,5.53
2022-08-16T02:05:46.563Z,5.68
2022-08-16T02:08:39.139Z,5.55
2022-08-16T02:11:27.675Z,5.90
2022-08-16T02:14:36.975Z,5.63
2022-08-16T02:17:24.154Z,5.63
2022-08-16T02:20:18.173Z,5.53
2022-08-16T02:23:13.350Z,5.32
2022-08-16T02:26:00.711Z,4.88
2022-08-16T02:28:49.435Z,5.80
2022-08-16T02:32:03.144Z,5.28
2022-08-16T02:34:52.586Z,5.70
2022-08-16T02:37:53.450Z,5.53
2022-08-16T02:40:43.348Z,5.82
2022-08-16T02:43:33.247Z,5.63
2022-08-16T02:46:20.825Z,6.00
2022-08-16T02:49:17.636Z,5.88
2022-08-16T02:52:09.141Z,5.47
2022-08-16T02:54:56.448Z,5.20
2022-08-16T02:57:53.896Z,5.95
2022-08-16T03:00:45.467Z,5.75
2022-08-16T03:04:39.980Z,5.07
2022-08-16T03:06:44.951Z,5.68
2022-08-16T03:09:33.954Z,5.50
2022-08-16T03:12:30.027Z,6.18
2022-08-16T03:15:24.074Z,6.25
2022-08-16T03:18:18.603Z,6.60
2022-08-16T03:21:22.063Z,5.78
2022-08-16T03:24:29.398Z,5.65
2022-08-16T03:27:17.915Z,6.18
2022-08-16T03:30:16.129Z,5.60
2022-08-16T03:33:05.657Z,6.63
2022-08-16T03:36:30.303Z,5.85
2022-08-16T03:39:15.210Z,6.35
2022-08-16T03:42:09.671Z,6.28
2022-08-16T03:45:03.498Z,7.10
2022-08-16T03:47:58.251Z,5.60
2022-08-16T03:50:59.871Z,6.43
2022-08-16T03:54:01.183Z,6.35
2022-08-16T03:56:56.844Z,7.05
2022-08-16T03:59:45.283Z,6.35
2022-08-16T04:02:32.433Z,6.13
2022-08-16T04:05:19.599Z,6.63
2022-08-16T04:08:23.099Z,6.15
2022-08-16T04:11:11.413Z,6.45
2022-08-16T04:14:08.657Z,5.82
2022-08-16T04:16:56.338Z,6.40
2022-08-16T04:19:51.792Z,6.18
2022-08-16T04:22:44.580Z,5.25
2022-08-16T04:25:36.561Z,6.55
2022-08-16T04:28:54.561Z,7.10
2022-08-16T04:31:34.821Z,5.53
2022-08-16T04:34:22.447Z,6.03
2022-08-16T04:37:12.358Z,5.88
2022-08-16T04:40:05.689Z,5.50
2022-08-16T04:42:53.518Z,5.75
2022-08-16T04:45:45.650Z,5.85
2022-08-16T04:48:34.363Z,5.80
2022-08-16T04:51:24.220Z,5.13
2022-08-16T04:54:19.350Z,5.78
2022-08-16T04:57:07.016Z,5.20
2022-08-16T04:59:56.478Z,5.43
2022-08-16T05:02:43.810Z,5.20
2022-08-16T05:05:44.778Z,5.30
2022-08-16T05:08:35.960Z,5.32
2022-08-16T05:11:32.109Z,6.07
2022-08-16T05:14:46.600Z,5.70
2022-08-16T05:17:31.793Z,5.72
2022-08-16T05:20:38.794Z,5.20
2022-08-16T05:23:31.807Z,5.57
2022-08-16T05:26:20.480Z,5.22
2022-08-16T05:29:10.995Z,5.07
2022-08-16T05:32:02.760Z,5.30
2022-08-16T05:34:50.085Z,5.35
2022-08-16T05:37:40.262Z,5.43
2022-08-16T05:40:27.403Z,5.60
2022-08-16T05:43:15.030Z,5.20
2022-08-16T05:46:29.936Z,5.45
2022-08-16T05:49:16.192Z,5.22
2022-08-16T05:52:17.452Z,5.03
2022-08-16T05:55:08.484Z,6.05
2022-08-16T05:57:58.855Z,5.10
2022-08-16T06:00:49.131Z,5.05
2022-08-16T06:03:39.040Z,5.65
2022-08-16T06:06:28.993Z,4.85
2022-08-16T06:09:19.428Z,5.30
2022-08-16T06:12:07.024Z,5.35
2022-08-16T06:15:07.644Z,4.88
2022-08-16T06:17:55.295Z,4.93
2022-08-16T06:20:55.131Z,5.22
2022-08-16T06:23:43.622Z,4.32
2022-08-16T06:26:36.742Z,4.55
2022-08-16T06:29:26.653Z,5.28
2022-08-16T06:32:26.186Z,4.93
2022-08-16T06:35:18.895Z,4.20
2022-08-16T06:38:06.106Z,4.82
2022-08-16T06:41:13.945Z,5.15
2022-08-16T06:44:04.379Z,4.75
2022-08-16T06:46:57.764Z,3.92
2022-08-16T06:49:55.412Z,4.22
2022-08-16T06:52:57.885Z,4.07
2022-08-16T06:56:00.326Z,4.30
2022-08-16T06:58:47.746Z,5.00
2022-08-16T07:01:46.102Z,4.75
2022-08-16T07:04:42.577Z,4.90
2022-08-16T07:07:34.396Z,4.88
2022-08-16T07:10:26.651Z,3.92
2022-08-16T07:13:26.579Z,4.43
2022-08-16T07:16:32.205Z,4.45
2022-08-16T07:19:21.685Z,4.30
2022-08-16T07:22:38.386Z,4.50
2022-08-16T07:25:26.932Z,4.85
2022-08-16T07:28:20.455Z,4.72
2022-08-16T07:31:12.988Z,4.70
2022-08-16T07:34:04.739Z,4.50
2022-08-16T07:36:59.663Z,3.97
2022-08-16T07:39:47.004Z,4.28
2022-08-16T07:42:36.252Z,4.50
2022-08-16T07:45:23.480Z,4.70
2022-08-16T07:48:11.514Z,4.60
2022-08-16T07:51:01.707Z,3.97
2022-08-16T07:54:09.455Z,4.57
2022-08-16T07:56:57.518Z,4.32
2022-08-16T07:59:46.358Z,4.20
2022-08-16T08:02:38.889Z,4.03
2022-08-16T08:08:50.799Z,3.70
2022-08-16T08:11:34.126Z,4.40
2022-08-16T08:14:29.751Z,5.18
2022-08-16T08:17:21.031Z,4.50
2022-08-16T08:20:12.570Z,4.75
2022-08-16T08:23:08.366Z,4.53
2022-08-16T08:25:56.679Z,4.25
2022-08-16T08:28:48.794Z,3.90
2022-08-16T08:31:37.277Z,4.32
2022-08-16T08:34:25.075Z,4.25
2022-08-16T08:37:12.856Z,4.00
2022-08-16T08:40:00.957Z,4.43
2022-08-16T08:42:57.384Z,4.07
2022-08-16T08:45:49.132Z,4.20
2022-08-16T08:48:43.776Z,4.45
2022-08-16T08:51:36.887Z,4.57
2022-08-16T08:54:25.874Z,4.05
2022-08-16T08:57:13.327Z,4.13
2022-08-16T09:00:00.558Z,3.50
2022-08-16T09:02:52.257Z,3.67
2022-08-16T09:05:39.848Z,3.67
2022-08-16T09:08:32.211Z,4.13
2022-08-16T09:11:40.668Z,4.55
2022-08-16T09:14:29.798Z,4.18
2022-08-16T09:17:38.368Z,3.20
2022-08-16T09:20:26.981Z,3.10
2022-08-16T09:23:14.863Z,2.50
2022-08-16T09:26:45.592Z,2.83
2022-08-16T09:29:24.217Z,2.80
2022-08-16T09:32:30.260Z,3.03
2022-08-16T09:35:18.212Z,2.88
2022-08-16T09:38:08.690Z,2.80
2022-08-16T09:41:00.153Z,2.75
2022-08-16T09:43:58.768Z,2.60
2022-08-16T09:46:49.807Z,2.42
2022-08-16T09:49:37.554Z,3.10
2022-08-16T09:52:30.936Z,2.73
2022-08-16T09:55:18.239Z,3.20
2022-08-16T09:58:07.755Z,3.90
2022-08-16T10:00:58.236Z,3.28
2022-08-16T10:04:02.254Z,2.67
2022-08-16T10:06:50.417Z,3.05
2022-08-16T10:09:54.356Z,2.85
2022-08-16T10:13:04.636Z,2.42
2022-08-16T10:16:00.079Z,2.50
2022-08-16T10:19:01.497Z,2.60
2022-08-16T10:21:56.225Z,2.95
2022-08-16T10:24:56.166Z,3.72
2022-08-16T10:27:53.324Z,2.58
2022-08-16T10:30:44.755Z,2.80
2022-08-16T10:33:40.245Z,3.25
2022-08-16T10:36:38.609Z,2.75
2022-08-16T10:39:27.142Z,2.60
2022-08-16T10:42:29.052Z,2.10
2022-08-16T10:45:21.400Z,2.47
2022-08-16T10:48:27.076Z,2.80
2022-08-16T10:51:17.200Z,2.78
2022-08-16T10:54:05.765Z,2.40
2022-08-16T10:57:13.034Z,2.80
2022-08-16T11:00:04.723Z,3.03
2022-08-16T11:03:03.785Z,2.65
2022-08-16T11:05:59.701Z,2.70
2022-08-16T11:08:47.542Z,2.95
2022-08-16T11:11:35.098Z,2.30
2022-08-16T11:21:09.751Z,2.60
2022-08-16T11:24:42.438Z,2.83
2022-08-16T11:27:32.814Z,2.38
2022-08-16T11:30:28.399Z,2.45
2022-08-16T11:33:52.012Z,2.45
2022-08-16T11:36:33.602Z,2.45
2022-08-16T11:39:20.748Z,2.35
2022-08-16T11:42:23.146Z,2.00
2022-08-16T11:45:15.878Z,2.38
2022-08-16T11:48:04.261Z,2.03
2022-08-16T11:50:54.992Z,2.33
2022-08-16T11:53:42.216Z,2.10
2022-08-16T11:56:39.804Z,2.00
2022-08-16T11:59:39.982Z,2.00
2022-08-16T12:02:31.115Z,2.10
2022-08-16T12:05:20.240Z,2.60
2022-08-16T12:08:08.323Z,2.65
2022-08-16T12:10:59.285Z,2.20
2022-08-16T12:13:48.816Z,2.10
2022-08-16T12:16:40.554Z,2.00
2022-08-16T12:19:38.563Z,1.90
2022-08-16T12:22:26.020Z,2.00
2022-08-16T12:25:16.189Z,1.80
2022-08-16T12:28:09.033Z,1.80
2022-08-16T12:30:56.444Z,2.33
2022-08-16T12:33:44.800Z,2.55
2022-08-16T12:36:32.542Z,2.30
2022-08-16T12:39:21.153Z,2.42
2022-08-16T12:42:10.667Z,2.33
2022-08-16T12:44:57.804Z,2.03
2022-08-16T12:48:32.670Z,1.88
2022-08-16T12:51:24.243Z,1.92
2022-08-16T12:54:16.833Z,2.10
2022-08-16T12:57:06.873Z,2.33
2022-08-16T13:00:04.040Z,2.53
2022-08-16T13:02:57.578Z,2.47
2022-08-16T13:05:53.242Z,2.10
2022-08-16T13:08:46.820Z,2.38
2022-08-16T13:11:52.205Z,2.00
2022-08-16T13:14:47.693Z,2.53
2022-08-16T13:17:38.979Z,2.30
2022-08-16T13:20:30.945Z,2.25
2022-08-16T13:23:19.069Z,2.85
2022-08-16T13:26:17.749Z,2.03
2022-08-16T13:29:05.140Z,2.20
2022-08-16T13:31:58.677Z,2.17
2022-08-16T13:34:49.675Z,2.15
2022-08-16T13:37:39.517Z,2.65
2022-08-16T13:40:26.939Z,2.30
2022-08-16T13:43:15.111Z,2.03
2022-08-16T13:46:06.727Z,1.80
2022-08-16T13:48:54.090Z,1.90
2022-08-16T13:51:43.968Z,1.70
2022-08-16T13:54:34.302Z,1.77
2022-08-16T13:57:21.476Z,1.85
2022-08-16T14:00:28.710Z,1.85
2022-08-16T14:03:18.405Z,2.00
2022-08-16T14:06:10.496Z,1.92
2022-08-16T14:09:06.234Z,1.92
2022-08-16T14:11:55.778Z,1.90
2022-08-16T14:14:45.020Z,1.90
2022-08-16T14:18:17.124Z,1.97
2022-08-16T14:20:48.893Z,1.85
2022-08-16T14:23:44.944Z,2.00
2022-08-16T14:26:36.398Z,1.63
2022-08-16T14:32:33.253Z,2.13
2022-08-16T14:35:48.465Z,1.90
2022-08-16T14:38:39.532Z,1.98
2022-08-16T14:41:28.935Z,2.10
2022-08-16T14:44:16.268Z,2.05
2022-08-16T14:47:09.973Z,1.50
2022-08-16T14:49:59.278Z,2.30
2022-08-16T14:53:01.278Z,2.40
2022-08-16T14:55:55.442Z,2.25
2022-08-16T14:58:42.552Z,2.40
2022-08-16T15:01:57.832Z,2.08
2022-08-16T15:04:49.278Z,1.90
2022-08-16T15:07:47.313Z,1.80
2022-08-16T15:10:42.901Z,1.90
2022-08-16T15:13:34.084Z,2.30
2022-08-16T15:16:27.686Z,2.10
2022-08-16T15:19:19.053Z,2.17
2022-08-16T15:22:22.028Z,2.08
2022-08-16T15:25:14.515Z,2.15
2022-08-16T15:28:05.950Z,2.10
2022-08-16T15:30:59.662Z,2.25
2022-08-16T15:33:56.599Z,1.90
2022-08-16T15:36:48.680Z,2.50
2022-08-16T15:39:39.925Z,2.10
2022-08-16T15:42:29.988Z,2.10
2022-08-16T15:45:38.190Z,2.38
2022-08-16T15:48:30.982Z,1.90
2022-08-16T15:51:18.533Z,1.88
2022-08-16T15:54:29.487Z,2.17
2022-08-16T15:57:12.924Z,2.15
2022-08-16T16:00:04.575Z,2.30
2022-08-16T16:03:14.940Z,2.05
2022-08-16T16:06:07.470Z,2.58
2022-08-16T16:08:58.874Z,2.17
2022-08-16T16:11:48.966Z,2.27
2022-08-16T16:14:37.655Z,1.83
2022-08-16T16:17:25.578Z,2.42
2022-08-16T16:20:19.368Z,2.03
2022-08-16T16:23:10.659Z,2.20
2022-08-16T16:26:05.863Z,2.30
2022-08-16T16:29:08.603Z,2.15
2022-08-16T16:32:05.879Z,2.20
2022-08-16T16:34:53.409Z,1.98
2022-08-16T16:37:41.784Z,2.30
2022-08-16T16:40:35.262Z,2.10
2022-08-16T16:43:26.091Z,2.47
2022-08-16T16:46:43.239Z,2.20
2022-08-16T16:49:32.951Z,2.17
2022-08-16T16:52:43.639Z,2.90
2022-08-16T16:55:29.931Z,2.83
2022-08-16T16:58:37.117Z,2.88
2022-08-16T17:01:41.462Z,2.70
2022-08-16T17:04:36.976Z,3.03
2022-08-16T17:07:24.757Z,3.08
2022-08-16T17:10:13.206Z,3.20
2022-08-16T17:13:26.011Z,2.88
2022-08-16T17:16:18.784Z,3.40
2022-08-16T17:19:17.000Z,3.45
2022-08-16T17:22:14.258Z,3.38
2022-08-16T17:27:50.964Z,3.00
2022-08-16T17:30:44.709Z,3.30
2022-08-16T17:33:37.031Z,2.95
2022-08-16T17:36:36.561Z,3.58
2022-08-16T17:39:24.163Z,3.05
2022-08-16T17:42:16.363Z,3.40
2022-08-16T17:45:03.963Z,3.00
2022-08-16T17:47:51.972Z,3.42
2022-08-16T17:50:40.624Z,3.47
2022-08-16T17:53:28.288Z,3.55
2022-08-16T17:56:17.415Z,5.13
2022-08-16T17:59:08.155Z,3.75
2022-08-16T18:01:56.166Z,3.55
2022-08-16T18:04:49.797Z,3.67
2022-08-16T18:07:37.563Z,3.33
2022-08-16T18:10:33.446Z,3.25
2022-08-16T18:13:24.058Z,3.30
2022-08-16T18:16:16.710Z,3.70
2022-08-16T18:19:07.445Z,3.42
2022-08-16T18:22:15.605Z,3.63
2022-08-16T18:25:05.752Z,4.18
2022-08-16T18:27:55.364Z,3.70
2022-08-16T18:30:46.768Z,3.80
2022-08-16T18:33:43.649Z,3.47
2022-08-16T18:36:33.383Z,3.60
2022-08-16T18:39:23.529Z,3.35
2022-08-16T18:42:14.755Z,3.42
2022-08-16T18:45:03.937Z,4.10
2022-08-16T18:47:55.476Z,3.95
2022-08-16T18:51:03.326Z,3.70
2022-08-16T18:53:54.711Z,3.92
2022-08-16T18:56:55.538Z,4.72
2022-08-16T18:59:44.726Z,3.88
2022-08-16T19:02:57.230Z,3.70
2022-08-16T19:05:44.712Z,4.05
2022-08-16T19:08:36.799Z,3.45
2022-08-16T19:11:28.968Z,3.83
2022-08-16T19:14:19.148Z,3.58
2022-08-16T19:17:07.963Z,3.55
2022-08-16T19:19:55.160Z,3.83
2022-08-16T19:23:02.636Z,3.65
2022-08-16T19:25:56.196Z,3.60
2022-08-16T19:28:51.365Z,3.40
2022-08-16T19:31:46.578Z,3.80
2022-08-16T19:34:33.765Z,3.30
2022-08-16T19:37:22.084Z,3.70
2022-08-16T19:40:25.632Z,3.78
2022-08-16T19:43:22.007Z,4.10
2022-08-16T19:46:09.185Z,4.22
2022-08-16T19:48:56.843Z,3.67
2022-08-16T19:51:47.795Z,4.68
2022-08-16T19:54:36.886Z,4.03
2022-08-16T19:57:45.395Z,3.97
2022-08-16T20:00:35.464Z,4.57
2022-08-16T20:03:24.725Z,3.67
2022-08-16T20:06:12.112Z,4.00
2022-08-16T20:09:19.463Z,3.83
2022-08-16T20:12:13.521Z,3.97
2022-08-16T20:15:00.892Z,4.28
2022-08-16T20:17:48.881Z,4.15
2022-08-16T20:20:37.236Z,4.40
2022-08-16T20:23:25.370Z,4.15
2022-08-16T20:26:12.884Z,4.53
2022-08-16T20:29:00.058Z,4.50
2022-08-16T20:31:47.746Z,3.88
2022-08-16T20:34:35.067Z,4.70
2022-08-16T20:37:22.707Z,4.07
2022-08-16T20:40:33.846Z,4.25
2022-08-16T20:44:17.864Z,4.18
2022-08-16T20:47:13.401Z,4.82
2022-08-16T20:50:07.819Z,4.75
2022-08-16T20:53:09.012Z,5.07
2022-08-16T20:56:06.810Z,4.97
2022-08-16T20:59:03.192Z,4.18
2022-08-16T21:01:51.005Z,4.47
2022-08-16T21:04:39.061Z,4.50
2022-08-16T21:07:26.200Z,4.32
2022-08-16T21:10:16.194Z,4.30
2022-08-16T21:13:03.666Z,4.78
2022-08-16T21:15:51.410Z,5.07
2022-08-16T21:18:38.746Z,4.40
2022-08-16T21:21:31.876Z,4.63
2022-08-16T21:24:20.815Z,4.15
2022-08-16T21:27:08.388Z,4.40
2022-08-16T21:29:59.028Z,4.18
2022-08-16T21:32:50.861Z,4.53
2022-08-16T21:35:40.922Z,4.18
2022-08-16T21:38:30.840Z,4.22
2022-08-16T21:41:19.026Z,4.47
2022-08-16T21:44:08.779Z,4.10
2022-08-16T21:46:58.385Z,4.40
2022-08-16T21:49:47.769Z,4.70
2022-08-16T21:52:35.609Z,4.63
2022-08-16T21:55:22.826Z,4.45
2022-08-16T21:58:12.728Z,4.65
2022-08-16T22:01:01.004Z,5.03
2022-08-16T22:03:48.319Z,4.40
2022-08-16T22:06:55.128Z,4.63
2022-08-16T22:09:45.801Z,4.72
2022-08-16T22:12:35.275Z,4.40
2022-08-16T22:15:26.151Z,4.55
2022-08-16T22:18:16.896Z,4.72
2022-08-16T22:21:04.135Z,5.10
2022-08-16T22:23:55.341Z,4.90
2022-08-16T22:26:47.198Z,5.03
2022-08-16T22:29:34.368Z,4.65
2022-08-16T22:32:22.113Z,4.82
2022-08-16T22:35:12.468Z,4.50
2022-08-16T22:38:53.700Z,4.55
2022-08-16T22:41:08.758Z,4.90
2022-08-16T22:43:56.963Z,5.05
2022-08-16T22:46:44.502Z,4.80
2022-08-16T22:49:31.896Z,4.80
2022-08-16T22:52:36.767Z,4.85
2022-08-16T22:55:27.144Z,4.80
2022-08-16T22:58:16.446Z,4.78
2022-08-16T23:01:06.215Z,4.82
2022-08-16T23:03:57.215Z,4.55
2022-08-16T23:06:46.696Z,5.43
2022-08-16T23:09:36.627Z,5.05
2022-08-16T23:12:30.710Z,4.32
2022-08-16T23:15:19.871Z,5.00
2022-08-16T23:18:11.594Z,4.78
2022-08-16T23:21:03.797Z,5.35
2022-08-16T23:23:51.306Z,4.90
2022-08-16T23:26:46.135Z,4.68
2022-08-16T23:29:35.398Z,4.97
2022-08-16T23:32:22.555Z,5.22
2022-08-16T23:35:09.997Z,5.28
2022-08-16T23:38:00.625Z,5.78
2022-08-16T23:40:48.744Z,5.55
2022-08-16T23:43:42.013Z,5.00
2022-08-16T23:46:31.954Z,5.57
2022-08-16T23:49:59.064Z,5.00
2022-08-16T23:52:42.368Z,5.40
2022-08-16T23:55:39.755Z,5.00
